Time;durP1;ratioP1;P1;durP2;ratioP2;P2;SDS_P1;SDS_P2;PMS_P1;PMS_P2;Temp;Humidity;BMP_temperature;BMP_pressure;BME280_temperature;BME280_humidity;BME280_pressure;Samples;Min_cycle;Max_cycle;Signal;HPM_P1;HPM_P2
2022/12/29 00:01:47;;;;;;;8.65;3.70;;;;;;;3.45;78.86;97500.22;5136633;27;20054;-62
2022/12/29 00:04:15;;;;;;;5.60;3.45;;;;;;;3.37;78.24;97499.31;5136702;27;20047;-65
2022/12/29 00:06:45;;;;;;;8.38;4.25;;;;;;;3.33;78.36;97497.53;5136684;27;20073;-63
2022/12/29 00:09:18;;;;;;;5.82;3.80;;;;;;;3.33;78.68;97508.75;5136574;27;20066;-63
2022/12/29 00:11:45;;;;;;;5.95;4.03;;;;;;;3.32;78.75;97512.22;5136296;27;20053;-60
2022/12/29 00:16:58;;;;;;;6.22;3.33;;;;;;;3.17;78.57;97510.38;5136672;27;20053;-65
2022/12/29 00:36:06;;;;;;;4.38;3.22;;;;;;;3.24;79.25;97511.28;5136334;27;20108;-62
2022/12/29 00:44:10;;;;;;;5.97;4.00;;;;;;;3.24;78.66;97532.84;5136091;27;20117;-63
2022/12/29 00:46:38;;;;;;;8.63;4.00;;;;;;;3.21;78.29;97514.72;5135803;27;20043;-64
2022/12/29 00:51:51;;;;;;;6.55;3.58;;;;;;;3.18;78.77;97519.00;5135919;27;20131;-67
2022/12/29 00:54:20;;;;;;;8.30;4.65;;;;;;;3.19;78.71;97513.00;5135748;27;20058;-65
2022/12/29 00:56:49;;;;;;;7.45;4.68;;;;;;;3.21;79.18;97514.72;5135700;27;20100;-67
2022/12/29 00:59:16;;;;;;;8.13;3.95;;;;;;;3.27;79.16;97519.94;5135706;27;20039;-62
2022/12/29 01:01:44;;;;;;;7.57;4.57;;;;;;;3.34;79.00;97514.81;5135651;27;20055;-64
2022/12/29 01:04:13;;;;;;;6.22;4.20;;;;;;;3.36;78.66;97516.53;5135556;27;20043;-64
2022/12/29 01:06:42;;;;;;;7.43;3.42;;;;;;;3.34;78.75;97507.91;5135516;27;20047;-64
2022/12/29 01:11:56;;;;;;;5.63;3.85;;;;;;;3.34;78.45;97515.66;5135406;27;20420;-64
2022/12/29 01:14:24;;;;;;;4.93;3.72;;;;;;;3.34;78.63;97520.00;5135331;27;20043;-64
2022/12/29 01:16:52;;;;;;;8.07;3.40;;;;;;;3.36;78.78;97521.72;5135349;27;20092;-62
2022/12/29 01:19:20;;;;;;;6.32;3.53;;;;;;;3.38;78.64;97514.84;5135366;27;20504;-64
2022/12/29 01:21:48;;;;;;;5.90;4.07;;;;;;;3.42;78.75;97505.38;5135235;27;20039;-66
2022/12/29 01:24:17;;;;;;;7.65;4.07;;;;;;;3.43;78.68;97504.50;5134895;27;20047;-65
2022/12/29 01:26:44;;;;;;;9.43;4.25;;;;;;;3.44;78.75;97501.06;5134812;27;20492;-62
2022/12/29 01:29:13;;;;;;;11.90;3.90;;;;;;;3.47;78.86;97507.97;5135155;27;20087;-66
2022/12/29 01:31:40;;;;;;;7.80;4.32;;;;;;;3.45;78.73;97501.91;5134982;27;20047;-61
2022/12/29 01:34:08;;;;;;;6.90;4.05;;;;;;;3.49;79.09;97499.38;5135029;27;20043;-62
2022/12/29 01:36:44;;;;;;;9.88;3.95;;;;;;;3.48;78.84;97501.94;5134903;27;20134;-64
2022/12/29 01:39:11;;;;;;;5.28;4.03;;;;;;;3.46;78.90;97501.09;5134912;27;20069;-64
2022/12/29 01:41:38;;;;;;;8.55;3.85;;;;;;;3.47;78.85;97495.94;5134853;27;20051;-63
2022/12/29 01:44:38;;;;;;;10.50;4.75;;;;;;;3.50;79.19;97488.19;5134777;27;20043;-66
2022/12/29 01:47:09;;;;;;;13.73;6.93;;;;;;;3.37;80.65;97489.81;5134616;27;20095;-65
2022/12/29 01:49:36;;;;;;;;;;;;;;;3.30;80.93;97488.03;5135149;27;20043;-61
2022/12/29 01:52:07;;;;;;;15.20;7.57;;;;;;;3.25;81.56;97485.44;5134635;27;19966;-67
2022/12/29 01:54:39;;;;;;;22.52;10.85;;;;;;;3.21;82.16;97477.63;5134677;27;20126;-65
2022/12/29 01:57:13;;;;;;;28.02;12.77;;;;;;;3.28;82.46;97480.28;5134614;27;20054;-65
2022/12/29 01:59:46;;;;;;;16.17;8.18;;;;;;;3.38;82.55;97480.34;5134547;27;20122;-65
2022/12/29 02:02:15;;;;;;;8.02;5.05;;;;;;;3.44;81.87;97479.50;5134462;27;20054;-63
2022/12/29 02:04:45;;;;;;;9.55;4.32;;;;;;;3.50;81.34;97474.38;5134530;27;20115;-61
2022/12/29 02:07:18;;;;;;;13.35;7.43;;;;;;;3.55;81.01;97467.47;5134362;27;20047;-63
2022/12/29 02:09:48;;;;;;;18.08;10.38;;;;;;;3.61;80.84;97469.25;5134404;27;20047;-64
2022/12/29 02:12:17;;;;;;;11.27;5.30;;;;;;;3.66;80.55;97471.00;5134285;27;20401;-65
2022/12/29 02:14:45;;;;;;;12.00;5.93;;;;;;;3.63;80.63;97470.09;5134296;27;20051;-66
2022/12/29 02:17:26;;;;;;;9.95;5.78;;;;;;;3.66;80.32;97471.00;5134236;27;20043;-63
2022/12/29 02:20:20;;;;;;;10.23;5.22;;;;;;;3.67;80.47;97466.66;5134210;27;20047;-67
2022/12/29 02:23:02;;;;;;;9.05;5.47;;;;;;;3.66;80.49;97463.25;5134211;27;20089;-64
2022/12/29 02:26:01;;;;;;;7.38;4.82;;;;;;;3.71;80.38;97457.22;5134099;27;20079;-66
2022/12/29 02:28:53;;;;;;;11.30;4.80;;;;;;;3.72;80.47;97456.34;5134103;27;20051;-63
2022/12/29 02:31:31;;;;;;;14.32;5.95;;;;;;;3.76;80.38;97450.31;5133983;27;20051;-65
2022/12/29 02:34:07;;;;;;;12.20;7.68;;;;;;;3.79;80.23;97456.38;5134099;27;20039;-65
2022/12/29 02:36:44;;;;;;;11.55;6.95;;;;;;;3.79;80.04;97452.91;5133920;27;20085;-66
2022/12/29 02:39:20;;;;;;;9.98;5.68;;;;;;;3.78;79.98;97452.06;5134075;28;20071;-64
2022/12/29 02:41:58;;;;;;;10.20;5.85;;;;;;;3.75;79.66;97453.75;5133933;28;20115;-64
2022/12/29 02:44:31;;;;;;;17.05;7.50;;;;;;;3.71;79.59;97450.31;5133954;28;20047;-65
2022/12/29 02:47:06;;;;;;;13.15;6.32;;;;;;;3.66;79.76;97444.25;5133773;28;20039;-65
2022/12/29 02:49:39;;;;;;;12.73;5.90;;;;;;;3.63;79.70;97445.09;5133734;28;20039;-63
2022/12/29 02:52:15;;;;;;;10.20;6.72;;;;;;;3.60;79.79;97439.03;5133795;28;20043;-63
2022/12/29 02:54:41;;;;;;;13.95;6.25;;;;;;;3.62;79.52;97438.22;5133868;28;20118;-66
2022/12/29 02:57:13;;;;;;;9.75;5.22;;;;;;;3.54;79.24;97443.34;5133738;28;20043;-65
2022/12/29 02:59:41;;;;;;;10.10;5.70;;;;;;;3.41;79.08;97438.97;5133784;28;20058;-67
2022/12/29 03:02:29;;;;;;;11.07;4.70;;;;;;;3.35;79.09;97434.63;5133776;28;20058;-65
2022/12/29 03:05:20;;;;;;;10.85;5.80;;;;;;;3.26;78.88;97434.56;5133825;28;20502;-63
2022/12/29 03:07:57;;;;;;;11.43;5.43;;;;;;;3.10;79.06;97429.31;5133785;28;20073;-62
2022/12/29 03:10:36;;;;;;;12.45;5.50;;;;;;;3.01;79.13;97431.84;5133559;28;20043;-62
2022/12/29 03:16:05;;;;;;;12.10;4.88;;;;;;;2.82;78.46;97423.97;5133787;28;20070;-64
2022/12/29 03:18:56;;;;;;;13.98;4.82;;;;;;;2.75;78.57;97429.94;5133649;28;20047;-65
2022/12/29 03:24:13;;;;;;;6.30;4.50;;;;;;;2.47;78.01;97427.16;5132704;28;20047;-66
2022/12/29 03:26:45;;;;;;;10.30;6.10;;;;;;;2.33;79.61;97433.06;5133525;28;20058;-67
2022/12/29 03:29:14;;;;;;;18.17;5.82;;;;;;;2.36;80.06;97434.78;5133611;28;20043;-61
2022/12/29 03:31:43;;;;;;;8.20;5.03;;;;;;;2.27;79.00;97417.50;5133569;28;20061;-64
2022/12/29 03:34:14;;;;;;;7.45;4.85;;;;;;;2.08;78.60;97429.38;5133463;28;20051;-67
2022/12/29 03:36:49;;;;;;;8.77;5.10;;;;;;;1.98;78.59;97438.72;5133396;28;20506;-63
2022/12/29 03:39:16;;;;;;;13.35;5.25;;;;;;;1.82;78.80;97423.06;5133469;28;20492;-65
2022/12/29 03:41:45;;;;;;;13.02;5.35;;;;;;;1.73;79.04;97431.59;5133466;28;20461;-62
2022/12/29 03:44:14;;;;;;;19.25;6.60;;;;;;;1.66;79.12;97431.50;5133386;28;20485;-64
2022/12/29 03:46:41;;;;;;;10.15;5.55;;;;;;;1.65;79.29;97430.59;5133266;28;20084;-66
2022/12/29 03:49:09;;;;;;;9.70;5.10;;;;;;;1.64;79.11;97419.44;5135632;27;20047;-66
2022/12/29 03:51:38;;;;;;;11.07;5.80;;;;;;;1.63;79.33;97420.28;5137019;27;20051;-62
2022/12/29 03:54:05;;;;;;;9.73;5.28;;;;;;;1.62;79.04;97422.84;5136938;27;20100;-66
2022/12/29 03:56:32;;;;;;;10.10;5.28;;;;;;;1.59;78.60;97426.25;5136987;27;20122;-61
2022/12/29 03:58:59;;;;;;;18.05;6.22;;;;;;;1.56;78.46;97425.38;5136868;27;20047;-63
2022/12/29 04:01:26;;;;;;;13.05;7.18;;;;;;;1.43;78.28;97430.34;5136887;27;20097;-64
2022/12/29 04:03:53;;;;;;;10.80;5.85;;;;;;;1.38;78.36;97429.41;5136746;27;20047;-64
2022/12/29 04:06:21;;;;;;;13.23;5.82;;;;;;;1.37;78.42;97425.13;5136789;27;20047;-63
2022/12/29 04:08:50;;;;;;;13.15;5.97;;;;;;;1.29;78.63;97432.75;5136693;27;20417;-64
2022/12/29 04:11:17;;;;;;;13.05;5.72;;;;;;;1.23;79.15;97433.53;5136636;27;20074;-64
2022/12/29 04:13:44;;;;;;;10.38;5.88;;;;;;;1.17;79.45;97430.88;5136529;27;20411;-63
2022/12/29 04:16:12;;;;;;;7.57;5.55;;;;;;;1.05;79.41;97431.56;5136610;27;20096;-63
2022/12/29 04:18:39;;;;;;;13.00;5.63;;;;;;;1.01;79.63;97440.09;5136444;27;20055;-62
2022/12/29 04:21:06;;;;;;;15.80;5.65;;;;;;;0.96;79.59;97449.50;5136625;27;20126;-62
2022/12/29 04:23:36;;;;;;;11.93;6.95;;;;;;;0.89;79.69;97445.94;5136439;27;20047;-63
2022/12/29 04:26:06;;;;;;;12.82;5.57;;;;;;;0.88;79.50;97447.66;5136440;27;20043;-64
2022/12/29 04:28:33;;;;;;;12.40;6.32;;;;;;;0.86;79.31;97443.31;5136450;27;20089;-66
2022/12/29 04:31:01;;;;;;;12.88;6.28;;;;;;;0.87;79.12;97435.63;5136245;27;20134;-63
2022/12/29 04:33:28;;;;;;;12.02;6.47;;;;;;;0.81;79.15;97439.81;5136250;27;20051;-62
2022/12/29 04:35:56;;;;;;;12.18;5.47;;;;;;;0.75;78.89;97441.44;5136173;27;20058;-60
2022/12/29 04:38:24;;;;;;;7.47;5.10;;;;;;;0.73;78.58;97440.53;5136168;27;20568;-63
2022/12/29 04:40:52;;;;;;;8.52;6.18;;;;;;;0.75;79.01;97449.19;5136143;27;20431;-63
2022/12/29 04:43:21;;;;;;;9.30;5.82;;;;;;;0.70;78.89;97452.53;5136015;27;20039;-63
2022/12/29 04:45:49;;;;;;;9.20;6.25;;;;;;;0.61;79.94;97450.66;5135890;27;20134;-64
2022/12/29 04:48:16;;;;;;;11.15;6.57;;;;;;;0.55;80.43;97451.44;5136051;27;20082;-62
2022/12/29 04:50:44;;;;;;;16.88;9.32;;;;;;;0.52;80.93;97453.97;5135942;27;20054;-60
2022/12/29 04:53:12;;;;;;;18.15;7.78;;;;;;;0.51;81.60;97447.06;5135718;27;20488;-63
2022/12/29 04:55:40;;;;;;;15.40;7.93;;;;;;;0.59;81.28;97447.19;5135864;27;20492;-64
2022/12/29 04:58:07;;;;;;;12.30;7.25;;;;;;;0.67;80.65;97455.06;5135728;27;20047;-60
2022/12/29 05:00:36;;;;;;;13.73;7.28;;;;;;;0.69;80.30;97454.22;5134388;27;20090;-60
2022/12/29 05:03:03;;;;;;;10.57;6.68;;;;;;;0.72;80.05;97456.00;5135529;27;20078;-65
2022/12/29 05:05:30;;;;;;;10.15;6.00;;;;;;;0.69;79.72;97453.38;5135663;27;20059;-63
2022/12/29 05:07:58;;;;;;;13.65;6.10;;;;;;;0.63;80.14;97452.41;5135574;27;20382;-64
2022/12/29 05:10:26;;;;;;;12.02;6.40;;;;;;;0.58;80.94;97459.22;5135434;27;20485;-61
2022/12/29 05:12:54;;;;;;;11.27;6.38;;;;;;;0.58;81.46;97454.06;5135360;27;20486;-62
2022/12/29 05:15:22;;;;;;;14.95;7.68;;;;;;;0.55;81.66;97443.72;5135377;27;20485;-60
2022/12/29 05:18:18;;;;;;;11.50;7.15;;;;;;;0.65;81.51;97457.59;5135273;27;20055;-62
2022/12/29 05:20:46;;;;;;;11.82;6.18;;;;;;;0.58;81.26;97458.34;5135344;27;20413;-64
2022/12/29 05:23:14;;;;;;;14.07;6.10;;;;;;;0.62;80.92;97460.13;5135247;27;20481;-62
2022/12/29 05:25:42;;;;;;;7.40;4.63;;;;;;;0.61;80.48;97458.41;5135277;27;20047;-61
2022/12/29 05:28:09;;;;;;;9.77;5.85;;;;;;;0.58;80.50;97468.66;5135180;27;20039;-63
2022/12/29 05:30:36;;;;;;;6.85;4.72;;;;;;;0.58;80.49;97469.53;5135119;27;20122;-64
2022/12/29 05:33:06;;;;;;;10.57;5.38;;;;;;;0.57;81.15;97472.06;5134920;27;20058;-64
2022/12/29 05:35:35;;;;;;;6.63;4.37;;;;;;;0.45;80.83;97473.56;5134986;27;20053;-64
2022/12/29 05:38:02;;;;;;;9.73;6.15;;;;;;;0.36;81.38;97470.88;5134951;27;20455;-64
2022/12/29 05:40:30;;;;;;;12.98;6.72;;;;;;;0.39;81.21;97470.03;5134814;27;20053;-64
2022/12/29 05:42:58;;;;;;;21.33;10.20;;;;;;;0.41;81.20;97470.91;5134822;27;20087;-62
2022/12/29 05:45:25;;;;;;;13.15;7.78;;;;;;;0.40;80.81;97464.91;5134443;27;20412;-63
2022/12/29 05:47:53;;;;;;;9.40;5.68;;;;;;;0.30;80.23;97463.88;5134805;27;20050;-63
2022/12/29 05:50:21;;;;;;;9.57;6.07;;;;;;;0.22;80.55;97468.03;5134684;27;20101;-66
2022/12/29 05:52:50;;;;;;;12.43;5.78;;;;;;;0.22;80.64;97470.59;5134631;27;20142;-62
2022/12/29 05:55:18;;;;;;;12.77;5.57;;;;;;;0.24;80.44;97468.94;5134603;27;20053;-61
2022/12/29 05:57:45;;;;;;;8.77;5.70;;;;;;;0.20;80.63;97473.16;5134663;27;20066;-61
2022/12/29 06:00:14;;;;;;;8.70;6.05;;;;;;;0.17;81.31;97469.66;5134612;27;20043;-60
2022/12/29 06:02:44;;;;;;;9.77;5.35;;;;;;;0.14;81.18;97477.31;5134509;27;20039;-65
2022/12/29 06:05:11;;;;;;;;;;;;;;;0.15;81.19;97474.75;5134873;27;20079;-60
2022/12/29 06:07:40;;;;;;;8.23;4.78;;;;;;;0.17;81.12;97475.66;5134374;27;19919;-66
2022/12/29 06:10:11;;;;;;;384.67;225.43;;;;;;;0.18;80.99;97473.97;5134232;27;20043;-61
2022/12/29 06:12:39;;;;;;;28.58;18.45;;;;;;;0.10;81.65;97472.13;5133993;27;20050;-62
2022/12/29 06:15:07;;;;;;;11.68;8.52;;;;;;;0.12;81.78;97473.00;5134406;27;20082;-60
2022/12/29 06:17:35;;;;;;;18.60;9.23;;;;;;;0.06;81.78;97472.03;5134294;27;20043;-65
2022/12/29 06:20:02;;;;;;;11.52;6.97;;;;;;;0.12;81.81;97475.56;5134378;27;20047;-59
2022/12/29 06:22:29;;;;;;;15.88;6.32;;;;;;;0.23;81.78;97480.94;5134332;27;20089;-64
2022/12/29 06:24:57;;;;;;;8.93;5.82;;;;;;;0.35;81.16;97472.56;5134266;27;20051;-63
2022/12/29 06:27:26;;;;;;;8.65;5.60;;;;;;;0.55;81.99;97481.47;5134112;27;20053;-63
2022/12/29 06:29:53;;;;;;;10.43;5.80;;;;;;;1.33;81.92;97478.38;5134038;27;20043;-62
2022/12/29 06:32:20;;;;;;;9.82;4.97;;;;;;;2.65;78.44;97476.38;5134194;27;20075;-64
2022/12/29 06:34:47;;;;;;;6.80;3.70;;;;;;;4.01;72.95;97479.75;5134072;27;20055;-65
2022/12/29 06:37:15;;;;;;;6.93;3.55;;;;;;;5.27;67.55;97484.16;5134197;27;20039;-60
2022/12/29 06:39:43;;;;;;;8.15;3.50;;;;;;;6.43;62.48;97483.75;5134077;28;20081;-66
2022/12/29 06:42:10;;;;;;;6.85;2.72;;;;;;;7.64;59.71;97487.06;5133966;28;20101;-61
2022/12/29 06:44:39;;;;;;;3.03;2.58;;;;;;;8.80;54.40;97485.56;5133933;28;20131;-67
2022/12/29 06:47:06;;;;;;;4.63;2.88;;;;;;;9.70;51.11;97473.53;5093116;28;20440;-64
2022/12/29 06:49:34;;;;;;;5.85;2.50;;;;;;;10.73;48.56;97467.91;5092963;28;20520;-67
2022/12/29 06:52:03;;;;;;;5.60;3.33;;;;;;;11.56;45.10;97474.53;5093066;28;20044;-64
2022/12/29 06:54:31;;;;;;;4.18;2.58;;;;;;;12.23;44.47;97470.09;5093006;28;20134;-62
2022/12/29 06:56:59;;;;;;;4.40;2.97;;;;;;;12.88;43.10;97476.84;5093063;28;20048;-66
2022/12/29 06:59:26;;;;;;;6.45;2.72;;;;;;;13.63;41.67;97470.00;5093080;28;20493;-66
2022/12/29 07:01:55;;;;;;;5.00;3.10;;;;;;;14.49;39.71;97471.25;5093114;28;20059;-61
2022/12/29 07:04:23;;;;;;;6.13;2.90;;;;;;;14.83;37.68;97466.44;5092928;28;20076;-62
2022/12/29 07:06:53;;;;;;;5.82;3.05;;;;;;;15.21;37.50;97476.31;5093066;28;20044;-65
2022/12/29 07:09:21;;;;;;;6.05;2.88;;;;;;;15.66;36.79;97474.41;5092956;28;20051;-65
2022/12/29 07:11:48;;;;;;;7.63;3.05;;;;;;;16.23;36.62;97478.09;5092954;28;20135;-65
2022/12/29 07:14:16;;;;;;;6.32;2.83;;;;;;;16.83;35.46;97473.53;5092713;28;20059;-65
2022/12/29 07:16:46;;;;;;;4.20;2.63;;;;;;;17.33;34.22;97484.38;5092743;28;20040;-62
2022/12/29 07:19:15;;;;;;;4.28;3.00;;;;;;;17.87;33.38;97470.13;5092853;28;20062;-65
2022/12/29 07:21:43;;;;;;;4.13;2.65;;;;;;;18.19;33.52;97467.59;5092804;28;20052;-66
2022/12/29 07:24:10;;;;;;;5.03;2.90;;;;;;;18.71;32.19;97470.06;5095316;28;20052;-66
2022/12/29 07:26:38;;;;;;;5.20;2.72;;;;;;;19.21;31.73;97478.75;5096657;28;20543;-65
2022/12/29 07:29:05;;;;;;;4.35;2.92;;;;;;;19.34;31.00;97484.19;5096584;28;20131;-67
2022/12/29 07:31:33;;;;;;;9.98;3.15;;;;;;;19.26;31.58;97481.13;5096497;28;20127;-63
2022/12/29 07:34:00;;;;;;;6.65;3.63;;;;;;;19.40;31.70;97480.31;5096393;28;20067;-65
2022/12/29 07:36:29;;;;;;;7.13;3.60;;;;;;;19.41;32.01;97482.00;5096476;28;20044;-62
2022/12/29 07:38:57;;;;;;;5.88;4.25;;;;;;;19.69;31.37;97491.00;5096298;28;20059;-65
2022/12/29 07:41:24;;;;;;;6.40;4.20;;;;;;;19.89;31.35;97496.88;5096438;28;20048;-62
2022/12/29 07:43:51;;;;;;;5.35;3.88;;;;;;;20.11;30.94;97495.59;5096271;28;20040;-64
2022/12/29 07:46:19;;;;;;;6.18;3.78;;;;;;;20.42;30.24;97493.66;5124068;27;20137;-64
2022/12/29 07:48:47;;;;;;;7.00;4.35;;;;;;;20.76;29.65;97494.16;5137033;27;20043;-66
2022/12/29 07:51:15;;;;;;;7.55;4.22;;;;;;;20.58;30.24;97491.75;5137019;27;20096;-63
2022/12/29 07:53:45;;;;;;;10.20;4.78;;;;;;;21.12;29.51;97494.56;5136925;27;20409;-65
2022/12/29 07:56:12;;;;;;;6.15;4.10;;;;;;;21.40;29.00;97492.69;5136907;27;20086;-64
2022/12/29 07:58:39;;;;;;;9.52;4.18;;;;;;;21.44;29.19;97491.56;5136935;27;20051;-63
2022/12/29 08:01:06;;;;;;;6.43;3.63;;;;;;;21.70;29.00;97494.22;5136939;27;20051;-60
2022/12/29 08:03:41;;;;;;;6.63;3.75;;;;;;;21.91;28.64;97491.06;5136797;27;20516;-66
2022/12/29 08:06:11;;;;;;;6.70;3.47;;;;;;;21.61;29.17;97486.03;5136780;27;20096;-66
2022/12/29 08:08:39;;;;;;;5.90;3.65;;;;;;;21.70;28.48;97490.72;5136796;27;20523;-63
2022/12/29 08:11:07;;;;;;;8.95;4.03;;;;;;;21.76;28.93;97494.81;5136712;27;20183;-62
2022/12/29 08:13:35;;;;;;;6.43;3.80;;;;;;;21.95;28.34;97491.72;5136622;27;20039;-63
2022/12/29 08:16:02;;;;;;;7.38;3.80;;;;;;;21.74;28.51;97500.22;5136628;27;20047;-65
2022/12/29 08:18:33;;;;;;;4.90;3.75;;;;;;;20.83;30.29;97490.16;5136571;27;20066;-65
2022/12/29 08:21:04;;;;;;;5.97;4.03;;;;;;;20.84;30.45;97496.34;5136658;27;20073;-66
2022/12/29 08:23:32;;;;;;;7.72;4.30;;;;;;;20.69;31.08;97487.53;5136548;27;20449;-64
2022/12/29 08:26:12;;;;;;;8.13;3.95;;;;;;;21.08;30.64;97490.41;5136481;27;20050;-62
2022/12/29 08:28:41;;;;;;;6.53;3.47;;;;;;;20.38;30.81;97486.84;5136352;27;20050;-65
2022/12/29 08:31:08;;;;;;;6.30;4.57;;;;;;;19.80;31.48;97490.31;5136364;27;20130;-62
2022/12/29 08:33:36;;;;;;;7.72;4.18;;;;;;;19.69;31.90;97478.56;5135985;27;20411;-66
2022/12/29 08:36:05;;;;;;;5.50;4.07;;;;;;;19.05;32.92;97484.03;5136188;27;20046;-63
2022/12/29 08:38:33;;;;;;;6.03;3.72;;;;;;;18.73;33.85;97477.00;5136081;27;20516;-64
2022/12/29 08:41:03;;;;;;;7.63;4.25;;;;;;;18.28;34.46;97477.69;5136298;27;20047;-65
2022/12/29 08:43:31;;;;;;;5.30;4.32;;;;;;;17.32;35.82;97474.69;5136443;27;20203;-64
2022/12/29 08:46:00;;;;;;;7.68;4.38;;;;;;;16.02;38.82;97471.06;5135904;27;20046;-64
2022/12/29 08:48:28;;;;;;;8.50;4.55;;;;;;;15.19;40.02;97476.38;5136060;27;20047;-63
2022/12/29 08:50:55;;;;;;;6.13;4.47;;;;;;;14.68;41.86;97471.38;5135846;27;20047;-61
2022/12/29 08:53:23;;;;;;;7.85;4.70;;;;;;;14.44;42.64;97473.19;5135964;27;20055;-62
2022/12/29 08:55:57;;;;;;;7.93;4.78;;;;;;;14.10;44.01;97470.06;5135851;27;20051;-64
2022/12/29 08:58:24;;;;;;;6.03;4.53;;;;;;;14.06;43.38;97463.22;5135860;27;20046;-63
2022/12/29 09:00:54;;;;;;;6.70;5.38;;;;;;;13.92;44.09;97463.72;5135824;27;20047;-62
2022/12/29 09:03:24;;;;;;;7.38;4.72;;;;;;;13.68;43.60;97461.06;5135672;27;20548;-61
2022/12/29 09:05:52;;;;;;;6.07;4.70;;;;;;;13.37;44.61;97455.94;5135689;27;20051;-62
2022/12/29 09:08:19;;;;;;;7.13;5.50;;;;;;;13.26;45.51;97458.09;5135593;27;20427;-65
2022/12/29 09:10:47;;;;;;;7.72;5.25;;;;;;;12.75;46.78;97448.38;5135502;27;20090;-65
2022/12/29 09:13:15;;;;;;;9.27;5.45;;;;;;;12.22;48.35;97452.63;5135573;27;20047;-64
2022/12/29 09:15:43;;;;;;;10.57;5.95;;;;;;;11.72;49.51;97434.81;5135169;27;20058;-62
2022/12/29 09:18:11;;;;;;;9.80;5.57;;;;;;;11.48;48.81;97438.09;5135406;27;20079;-63
2022/12/29 09:20:43;;;;;;;10.13;5.97;;;;;;;11.11;50.36;97432.06;5135350;27;20039;-63
2022/12/29 09:23:10;;;;;;;8.40;4.78;;;;;;;11.02;50.54;97431.44;5135284;27;20138;-63
2022/12/29 09:25:37;;;;;;;6.43;5.20;;;;;;;11.01;51.71;97429.75;5135208;27;20066;-61
2022/12/29 09:28:07;;;;;;;9.50;5.53;;;;;;;10.76;51.45;97431.19;5135230;27;20047;-64
2022/12/29 09:30:35;;;;;;;6.85;5.22;;;;;;;10.52;52.11;97428.28;5135175;27;20070;-62
2022/12/29 09:33:03;;;;;;;7.55;4.90;;;;;;;10.52;51.64;97428.28;5135123;27;20043;-64
2022/12/29 09:35:31;;;;;;;11.85;5.72;;;;;;;10.41;52.31;97422.41;5134915;27;20051;-64
2022/12/29 09:38:00;;;;;;;7.45;5.20;;;;;;;10.28;53.74;97427.06;5135041;27;20077;-63
2022/12/29 09:40:30;;;;;;;8.57;5.25;;;;;;;10.44;52.90;97422.31;5135014;27;20045;-64
2022/12/29 09:43:17;;;;;;;;;;;;;;;10.58;52.82;97416.81;5135458;27;20043;-62
2022/12/29 09:45:49;;;;;;;7.00;4.28;;;;;;;10.59;52.38;97413.28;5133935;27;19919;-60
2022/12/29 09:48:22;;;;;;;7.38;5.22;;;;;;;10.61;53.72;97414.13;5134698;27;20496;-63
2022/12/29 09:50:57;;;;;;;6.95;4.97;;;;;;;10.51;53.47;97405.63;5134747;27;20074;-63
2022/12/29 09:53:31;;;;;;;8.85;5.78;;;;;;;10.55;53.05;97401.19;5134410;27;20054;-64
2022/12/29 09:56:03;;;;;;;5.78;4.35;;;;;;;10.55;54.26;97399.44;5134663;27;20104;-63
2022/12/29 09:58:37;;;;;;;8.48;5.55;;;;;;;10.57;53.72;97400.22;5134581;27;20137;-65
2022/12/29 10:01:08;;;;;;;6.07;4.55;;;;;;;10.59;52.84;97393.22;5134704;27;20143;-65
2022/12/29 10:03:50;;;;;;;6.53;4.63;;;;;;;10.57;54.71;97394.16;5134768;27;20050;-64
2022/12/29 10:06:28;;;;;;;10.50;4.95;;;;;;;10.72;53.07;97388.53;5134498;27;20047;-66
2022/12/29 10:09:05;;;;;;;6.93;4.88;;;;;;;10.64;53.66;97389.63;5134556;27;20204;-63
2022/12/29 10:11:51;;;;;;;11.73;4.80;;;;;;;10.82;53.20;97381.31;5134238;27;20079;-66
2022/12/29 10:14:34;;;;;;;6.90;4.80;;;;;;;10.85;52.92;97380.38;5134290;27;20054;-63
2022/12/29 10:17:13;;;;;;;8.32;5.40;;;;;;;10.80;52.42;97383.09;5134364;27;20047;-65
2022/12/29 10:19:54;;;;;;;7.50;5.30;;;;;;;10.68;52.82;97375.56;5134394;27;20057;-65
2022/12/29 10:22:38;;;;;;;7.45;5.43;;;;;;;10.57;54.34;97379.31;5134198;27;20043;-65
2022/12/29 10:25:16;;;;;;;10.48;5.43;;;;;;;10.63;53.93;97366.97;5134136;27;20058;-63
2022/12/29 10:27:48;;;;;;;6.32;4.85;;;;;;;10.67;54.45;97369.50;5134154;27;20054;-65
2022/12/29 10:30:16;;;;;;;8.13;4.20;;;;;;;10.68;54.54;97367.72;5134166;27;20051;-61
2022/12/29 10:32:49;;;;;;;7.25;4.47;;;;;;;10.67;54.06;97363.38;5134031;27;20051;-60
2022/12/29 10:35:21;;;;;;;5.57;4.88;;;;;;;10.78;53.43;97364.00;5133988;27;20133;-64
2022/12/29 10:37:56;;;;;;;8.07;5.18;;;;;;;10.91;53.44;97361.03;5134012;28;20480;-62
2022/12/29 10:40:32;;;;;;;8.10;5.35;;;;;;;10.97;53.48;97360.88;5134051;28;20454;-64
2022/12/29 10:43:01;;;;;;;8.30;5.43;;;;;;;11.06;53.11;97358.03;5134069;28;20416;-66
2022/12/29 10:45:33;;;;;;;9.63;5.05;;;;;;;10.98;53.50;97366.06;5133706;28;20039;-63
2022/12/29 10:48:06;;;;;;;6.78;5.50;;;;;;;11.08;52.99;97357.97;5133902;28;20505;-62
2022/12/29 10:50:34;;;;;;;8.02;5.38;;;;;;;11.07;53.21;97356.25;5133753;28;20128;-62
2022/12/29 10:53:06;;;;;;;7.97;5.25;;;;;;;10.98;53.10;97352.13;5133976;28;20140;-62
2022/12/29 10:55:37;;;;;;;6.43;5.03;;;;;;;11.03;52.36;97350.25;5133773;28;20140;-66
2022/12/29 10:58:08;;;;;;;7.65;5.32;;;;;;;11.06;52.66;97344.94;5136347;27;20050;-60
2022/12/29 11:00:36;;;;;;;10.02;5.35;;;;;;;11.08;52.78;97347.50;5138059;27;20123;-66
2022/12/29 11:03:41;;;;;;;11.10;5.90;;;;;;;11.06;52.58;97338.81;5138026;27;20275;-64
2022/12/29 11:06:14;;;;;;;7.45;4.95;;;;;;;10.93;52.85;97335.69;5095955;27;20122;-62
2022/12/29 11:08:49;;;;;;;7.38;5.00;;;;;;;10.99;53.54;97338.97;5137887;27;20043;-63
2022/12/29 11:11:25;;;;;;;11.07;5.15;;;;;;;10.98;51.94;97331.16;5137944;27;20039;-62
2022/12/29 11:14:03;;;;;;;6.75;4.82;;;;;;;10.90;52.27;97325.28;5137681;27;20047;-63
2022/12/29 11:16:34;;;;;;;12.50;4.78;;;;;;;10.93;52.22;97325.22;5137725;27;20051;-61
2022/12/29 11:19:02;;;;;;;9.38;4.68;;;;;;;10.84;52.20;97318.47;5137656;27;20126;-66
2022/12/29 11:21:39;;;;;;;8.65;5.00;;;;;;;10.77;52.67;97314.31;5137814;27;20047;-62
2022/12/29 11:24:20;;;;;;;6.10;4.82;;;;;;;10.84;52.83;97314.06;5137646;27;20407;-66
2022/12/29 11:26:52;;;;;;;7.68;5.20;;;;;;;10.90;53.47;97320.94;5137647;27;20054;-65
2022/12/29 11:29:28;;;;;;;8.48;5.47;;;;;;;10.98;53.20;97318.94;5137396;27;20407;-62
2022/12/29 11:31:58;;;;;;;6.72;5.05;;;;;;;11.10;52.71;97319.50;5137427;27;20046;-64
2022/12/29 11:34:30;;;;;;;8.18;4.72;;;;;;;11.10;52.09;97314.25;5137260;27;20079;-63
2022/12/29 11:37:03;;;;;;;6.53;4.60;;;;;;;11.11;51.89;97311.59;5137339;27;20481;-62
2022/12/29 11:39:35;;;;;;;7.03;4.22;;;;;;;11.03;52.40;97315.34;5137305;27;20476;-64
2022/12/29 11:42:06;;;;;;;6.47;4.80;;;;;;;10.97;51.65;97308.53;5137231;27;20047;-66
2022/12/29 11:44:39;;;;;;;7.13;5.50;;;;;;;11.01;52.48;97307.53;5137171;27;20523;-65
2022/12/29 11:47:09;;;;;;;9.32;5.30;;;;;;;11.06;52.91;97307.41;5137048;27;20050;-62
2022/12/29 11:49:36;;;;;;;;;;;;;;;11.06;53.00;97304.78;5137601;27;20043;-62
2022/12/29 11:52:05;;;;;;;6.22;4.15;;;;;;;11.08;53.37;97303.84;5137150;27;19962;-66
2022/12/29 11:54:38;;;;;;;5.82;4.68;;;;;;;11.15;51.86;97299.28;5136915;27;20090;-65
2022/12/29 11:57:15;;;;;;;5.18;4.40;;;;;;;11.16;51.88;97297.53;5137054;27;20039;-66
2022/12/29 11:59:45;;;;;;;5.57;4.57;;;;;;;11.20;51.63;97289.53;5136991;27;20047;-65
2022/12/29 12:02:36;;;;;;;8.10;4.88;;;;;;;11.25;52.17;97290.28;5136845;27;20062;-64
2022/12/29 12:05:12;;;;;;;7.50;5.35;;;;;;;11.35;51.95;97282.16;5136876;27;20039;-63
2022/12/29 12:07:43;;;;;;;7.50;4.78;;;;;;;11.39;51.54;97289.03;5136812;27;20511;-63
2022/12/29 12:10:24;;;;;;;10.73;5.05;;;;;;;11.37;52.01;97285.56;5135922;27;20077;-66
2022/12/29 12:13:03;;;;;;;5.95;4.57;;;;;;;11.36;51.67;97281.25;5136811;27;20142;-66
2022/12/29 12:15:38;;;;;;;8.48;5.47;;;;;;;11.37;52.14;97288.19;5136498;27;20096;-63
2022/12/29 12:18:12;;;;;;;10.20;6.45;;;;;;;11.33;52.56;97282.19;5136648;27;20126;-65
2022/12/29 12:20:46;;;;;;;7.72;5.93;;;;;;;11.34;52.62;97281.28;5136529;27;20047;-65
2022/12/29 12:23:42;;;;;;;9.38;5.65;;;;;;;11.30;52.64;97276.19;5136549;27;20477;-63
2022/12/29 12:26:14;;;;;;;9.15;5.93;;;;;;;11.20;53.50;97281.69;5136448;27;20048;-63
2022/12/29 12:28:51;;;;;;;9.60;6.25;;;;;;;11.20;53.63;97276.44;5136239;27;20047;-62
2022/12/29 12:31:28;;;;;;;7.55;6.40;;;;;;;11.28;53.68;97278.84;5136243;27;20458;-65